Time;durP1;ratioP1;P1;durP2;ratioP2;P2;SDS_P1;SDS_P2;PMS_P1;PMS_P2;Temp;Humidity;BMP_temperature;BMP_pressure;BME280_temperature;BME280_humidity;BME280_pressure;Samples;Min_cycle;Max_cycle;Signal;HPM_P1;HPM_P2
2023/12/07 00:02:13;;;;;;;56.90;39.10;;;1.40;99.90;;;;;;5032092;28;20391;-73
2023/12/07 00:04:38;;;;;;;57.05;40.35;;;1.40;99.90;;;;;;5049852;28;20377;-72
2023/12/07 00:07:04;;;;;;;61.20;41.13;;;1.30;99.90;;;;;;5050103;28;20555;-71
2023/12/07 00:09:29;;;;;;;63.60;40.80;;;1.30;99.90;;;;;;5049772;28;20389;-71
2023/12/07 00:11:55;;;;;;;57.87;40.90;;;1.30;99.90;;;;;;5050082;28;20389;-71
2023/12/07 00:14:21;;;;;;;55.75;38.60;;;1.30;99.90;;;;;;5049666;28;20417;-71
2023/12/07 00:16:46;;;;;;;58.40;40.15;;;1.30;99.90;;;;;;5050521;28;20393;-72
2023/12/07 00:19:12;;;;;;;54.70;38.60;;;1.20;99.90;;;;;;5049893;28;20443;-71
2023/12/07 00:21:38;;;;;;;52.80;37.60;;;1.20;99.90;;;;;;5049778;28;20483;-72
2023/12/07 00:24:04;;;;;;;54.47;38.67;;;1.30;99.90;;;;;;5049630;28;20385;-73
2023/12/07 00:26:29;;;;;;;59.17;39.33;;;1.30;99.90;;;;;;5050233;28;20381;-72
2023/12/07 00:28:55;;;;;;;53.43;37.10;;;1.40;99.90;;;;;;5049744;28;20393;-73
2023/12/07 00:31:20;;;;;;;57.23;38.50;;;1.30;99.90;;;;;;5050118;28;20385;-72
2023/12/07 00:33:46;;;;;;;53.37;37.73;;;1.20;99.90;;;;;;5051133;28;20465;-71
2023/12/07 00:36:12;;;;;;;56.23;39.50;;;1.30;99.90;;;;;;5050509;28;20407;-72
2023/12/07 00:38:38;;;;;;;60.53;41.75;;;1.20;99.90;;;;;;5049813;28;20377;-73
2023/12/07 00:41:03;;;;;;;61.10;40.83;;;1.20;99.90;;;;;;5049975;28;20432;-73
2023/12/07 00:43:29;;;;;;;58.03;39.55;;;1.30;99.90;;;;;;5049912;28;20386;-72
2023/12/07 00:45:54;;;;;;;53.60;38.95;;;1.40;99.90;;;;;;5049806;28;20927;-72
2023/12/07 00:48:20;;;;;;;59.00;39.93;;;1.40;99.90;;;;;;5049483;28;20389;-72
2023/12/07 00:50:47;;;;;;;54.40;39.70;;;1.50;99.90;;;;;;5049775;28;20799;-73
2023/12/07 00:53:13;;;;;;;55.45;39.35;;;1.50;99.90;;;;;;5049656;28;20443;-72
2023/12/07 00:55:40;;;;;;;57.63;38.97;;;1.60;99.90;;;;;;5049270;28;20416;-72
2023/12/07 00:58:05;;;;;;;51.20;37.42;;;1.60;99.90;;;;;;5049132;28;20393;-73
2023/12/07 01:00:31;;;;;;;51.65;37.58;;;1.70;99.90;;;;;;5049501;28;20397;-74
2023/12/07 01:02:56;;;;;;;53.80;37.00;;;1.70;99.90;;;;;;5049708;28;20416;-72
2023/12/07 01:05:22;;;;;;;50.87;36.80;;;1.80;99.90;;;;;;5049617;28;20829;-72
2023/12/07 01:07:48;;;;;;;52.80;36.60;;;1.80;99.90;;;;;;5050098;28;20377;-72
2023/12/07 01:10:13;;;;;;;56.20;36.60;;;1.90;99.90;;;;;;5049883;28;20424;-74
2023/12/07 01:12:39;;;;;;;54.17;36.88;;;1.80;99.90;;;;;;5049126;28;20390;-71
2023/12/07 01:15:05;;;;;;;49.00;35.90;;;1.80;99.90;;;;;;5031749;28;20401;-72
2023/12/07 01:17:31;;;;;;;47.50;35.65;;;1.80;99.90;;;;;;5049504;28;20437;-71
2023/12/07 01:19:56;;;;;;;48.13;35.67;;;1.90;99.90;;;;;;5049582;28;20718;-71
2023/12/07 01:22:22;;;;;;;50.23;36.20;;;1.80;99.90;;;;;;5049602;28;20389;-72
2023/12/07 01:24:48;;;;;;;48.50;35.30;;;1.80;99.90;;;;;;5049785;28;20860;-71
2023/12/07 01:27:13;;;;;;;47.55;35.00;;;1.80;99.90;;;;;;5049464;28;20435;-72
2023/12/07 01:29:39;;;;;;;53.25;36.67;;;1.70;99.90;;;;;;5049490;28;20895;-72
2023/12/07 01:32:05;;;;;;;50.15;35.97;;;1.60;99.90;;;;;;5049395;28;20472;-72
2023/12/07 01:34:32;;;;;;;51.65;36.47;;;1.60;99.90;;;;;;5049588;28;20385;-71
2023/12/07 01:36:58;;;;;;;47.97;35.85;;;1.50;99.90;;;;;;5053054;28;20373;-72
2023/12/07 01:39:23;;;;;;;57.33;37.40;;;1.40;99.90;;;;;;5052564;28;20413;-73
2023/12/07 01:41:51;;;;;;;54.17;37.58;;;1.40;99.90;;;;;;5052503;28;20393;-71
2023/12/07 01:44:16;;;;;;;52.78;36.08;;;1.40;99.90;;;;;;5052917;28;20382;-72
2023/12/07 01:46:42;;;;;;;51.30;35.53;;;1.30;99.90;;;;;;5053203;28;20392;-72
2023/12/07 01:49:09;;;;;;;51.80;35.00;;;1.40;99.90;;;;;;5052997;28;20404;-72
2023/12/07 01:51:35;;;;;;;54.95;37.65;;;1.20;99.90;;;;;;5052754;28;20483;-72
2023/12/07 01:54:01;;;;;;;53.08;36.13;;;1.10;99.90;;;;;;5052481;28;20908;-72
2023/12/07 01:56:27;;;;;;;55.38;37.78;;;1.00;99.90;;;;;;5052503;28;20417;-73
2023/12/07 01:58:53;;;;;;;57.30;37.78;;;0.90;99.90;;;;;;5052603;28;20755;-74
2023/12/07 02:01:19;;;;;;;51.38;36.80;;;0.90;99.90;;;;;;5052263;28;20385;-72
2023/12/07 02:03:44;;;;;;;53.43;37.63;;;0.90;99.90;;;;;;5052277;28;20748;-72
2023/12/07 02:06:13;;;;;;;59.63;39.60;;;0.90;99.90;;;;;;5052131;28;20385;-72
2023/12/07 02:08:41;;;;;;;57.60;40.30;;;1.10;99.90;;;;;;5052124;28;20473;-72
2023/12/07 02:11:10;;;;;;;56.72;38.25;;;1.20;99.90;;;;;;5052197;28;20413;-72
2023/12/07 02:13:37;;;;;;;53.92;38.50;;;1.40;99.90;;;;;;5052348;28;20403;-73
2023/12/07 02:16:11;;;;;;;57.47;38.15;;;1.50;99.90;;;;;;5067881;22;20424;-75
2023/12/07 02:18:52;;;;;;;54.75;38.00;;;1.70;99.90;;;;;;5053784;28;20442;-75
2023/12/07 02:21:45;;;;;;;49.58;35.72;;;1.80;99.90;;;;;;5054096;28;20485;-74
2023/12/07 02:24:17;;;;;;;49.97;35.08;;;2.00;99.90;;;;;;5035306;28;20388;-75
2023/12/07 02:26:42;;;;;;;48.92;34.63;;;2.10;99.90;;;;;;5072714;28;20394;-75
2023/12/07 02:29:08;;;;;;;51.50;35.37;;;2.20;99.90;;;;;;5072769;28;20380;-74
2023/12/07 02:31:34;;;;;;;49.83;34.90;;;2.30;99.90;;;;;;5072853;28;20380;-74
2023/12/07 02:33:59;;;;;;;49.77;34.57;;;2.30;99.90;;;;;;5072406;28;20391;-74
2023/12/07 02:36:28;;;;;;;48.05;34.78;;;2.40;99.90;;;;;;5054452;28;20451;-75
2023/12/07 02:38:57;;;;;;;46.95;33.35;;;2.50;99.90;;;;;;5072231;28;20383;-74
2023/12/07 02:41:23;;;;;;;50.25;35.00;;;2.50;99.90;;;;;;5055026;28;20383;-75
2023/12/07 02:43:49;;;;;;;49.10;35.70;;;2.60;99.90;;;;;;5055680;28;20793;-74
2023/12/07 02:46:14;;;;;;;50.15;35.17;;;2.60;99.90;;;;;;5071637;28;20395;-76
2023/12/07 02:48:40;;;;;;;49.47;34.50;;;2.70;99.90;;;;;;5071834;28;20376;-74
2023/12/07 02:51:06;;;;;;;47.65;34.17;;;2.70;99.90;;;;;;5071848;28;20387;-76
2023/12/07 02:53:32;;;;;;;49.95;33.75;;;2.80;99.90;;;;;;5071492;28;20429;-75
2023/12/07 02:55:58;;;;;;;44.80;33.15;;;2.80;99.90;;;;;;5071692;28;20758;-75
2023/12/07 02:58:23;;;;;;;49.33;33.77;;;2.90;99.90;;;;;;5071662;28;20380;-74
2023/12/07 03:00:49;;;;;;;46.93;33.63;;;2.90;99.90;;;;;;5053841;28;20411;-76
2023/12/07 03:03:15;;;;;;;45.53;33.10;;;2.90;99.90;;;;;;5071605;28;20414;-75
2023/12/07 03:05:40;;;;;;;50.08;34.22;;;3.00;99.90;;;;;;5071493;28;20384;-75
2023/12/07 03:08:06;;;;;;;50.13;36.03;;;3.00;99.90;;;;;;5071543;28;20398;-75
2023/12/07 03:10:31;;;;;;;49.60;35.78;;;3.00;99.90;;;;;;5071399;28;20383;-75
2023/12/07 03:12:57;;;;;;;49.92;34.88;;;3.10;99.90;;;;;;5053267;28;20375;-76
2023/12/07 03:15:23;;;;;;;46.47;34.10;;;3.10;99.90;;;;;;5071321;28;20387;-75
2023/12/07 03:17:50;;;;;;;49.27;34.70;;;3.10;99.90;;;;;;5071218;28;20398;-75
2023/12/07 03:20:15;;;;;;;48.08;33.95;;;3.10;99.90;;;;;;5071587;28;20443;-75
2023/12/07 03:22:41;;;;;;;50.17;34.00;;;3.10;99.90;;;;;;5071084;28;20431;-74
2023/12/07 03:25:07;;;;;;;49.45;34.20;;;3.10;99.90;;;;;;5071248;28;20387;-74
2023/12/07 03:27:32;;;;;;;49.13;35.05;;;3.10;99.90;;;;;;5071511;28;20379;-76
2023/12/07 03:29:58;;;;;;;51.53;34.80;;;3.10;99.90;;;;;;5071099;28;20908;-74
2023/12/07 03:32:23;;;;;;;50.33;35.23;;;3.20;99.90;;;;;;5071190;28;20387;-75
2023/12/07 03:34:49;;;;;;;49.10;34.83;;;3.10;99.90;;;;;;5053046;28;20905;-74
2023/12/07 03:37:14;;;;;;;49.30;35.03;;;3.10;99.90;;;;;;5069533;28;20441;-75
2023/12/07 03:39:40;;;;;;;52.70;34.83;;;3.10;99.90;;;;;;5070839;28;20897;-73
2023/12/07 03:42:05;;;;;;;51.00;35.80;;;3.10;99.90;;;;;;5070593;28;20937;-74
2023/12/07 03:44:31;;;;;;;49.08;35.33;;;3.20;99.90;;;;;;5071062;28;20774;-74
2023/12/07 03:46:56;;;;;;;49.97;34.80;;;3.30;99.90;;;;;;5052954;28;20429;-75
2023/12/07 03:49:22;;;;;;;54.00;36.08;;;3.30;99.90;;;;;;5070799;28;20383;-75
2023/12/07 03:51:47;;;;;;;52.70;35.33;;;3.30;99.90;;;;;;5070783;28;20387;-74
2023/12/07 03:54:13;;;;;;;50.20;34.15;;;3.40;99.90;;;;;;5071213;28;20384;-74
2023/12/07 03:56:40;;;;;;;51.03;33.93;;;3.40;99.90;;;;;;5070667;28;20886;-75
2023/12/07 03:59:06;;;;;;;52.20;35.65;;;3.40;99.90;;;;;;5070107;28;20890;-75
2023/12/07 04:01:32;;;;;;;54.35;35.60;;;3.40;99.90;;;;;;5070726;28;20419;-74
2023/12/07 04:03:57;;;;;;;51.33;35.33;;;3.40;99.90;;;;;;5070622;28;20383;-75
2023/12/07 04:06:23;;;;;;;56.57;35.20;;;3.40;99.90;;;;;;5070619;28;20403;-75
2023/12/07 04:08:49;;;;;;;52.72;35.40;;;3.50;99.90;;;;;;5070825;28;20391;-75
2023/12/07 04:11:15;;;;;;;54.90;36.63;;;3.50;99.90;;;;;;5070822;28;20797;-75
2023/12/07 04:13:41;;;;;;;56.07;36.53;;;3.50;99.90;;;;;;5070439;28;20380;-75
2023/12/07 04:16:08;;;;;;;53.17;35.72;;;3.50;99.90;;;;;;5052609;28;20403;-74
2023/12/07 04:18:34;;;;;;;53.83;36.33;;;3.50;99.90;;;;;;5070537;28;20889;-76
2023/12/07 04:20:59;;;;;;;54.35;36.17;;;3.50;99.90;;;;;;5052551;28;20399;-76
2023/12/07 04:23:25;;;;;;;51.90;35.03;;;3.50;99.90;;;;;;5070353;28;20426;-75
2023/12/07 04:25:51;;;;;;;54.08;36.10;;;3.60;99.90;;;;;;5070495;28;20476;-76
2023/12/07 04:28:16;;;;;;;50.73;35.87;;;3.60;99.90;;;;;;5070547;28;20391;-76
2023/12/07 04:30:42;;;;;;;50.45;34.80;;;3.70;99.90;;;;;;5070240;28;20385;-75
2023/12/07 04:33:08;;;;;;;50.75;34.75;;;3.60;99.90;;;;;;5052214;28;20394;-75
2023/12/07 04:35:34;;;;;;;58.08;36.83;;;3.70;99.90;;;;;;5070328;28;20391;-74
2023/12/07 04:37:59;;;;;;;52.65;36.15;;;3.60;99.90;;;;;;5070215;28;20384;-75
2023/12/07 04:40:25;;;;;;;55.90;35.67;;;3.70;99.90;;;;;;5070846;28;20406;-74
2023/12/07 04:42:51;;;;;;;61.28;38.08;;;3.70;99.90;;;;;;5061813;28;20741;-75
2023/12/07 04:45:17;;;;;;;54.80;36.05;;;3.70;99.90;;;;;;5059521;28;20389;-74
2023/12/07 04:47:43;;;;;;;53.03;36.72;;;3.70;99.90;;;;;;5068147;28;20387;-75
2023/12/07 04:50:09;;;;;;;57.28;36.40;;;3.80;99.90;;;;;;5070018;28;20379;-74
2023/12/07 04:52:35;;;;;;;56.90;35.50;;;3.80;99.90;;;;;;5064615;28;20879;-76
2023/12/07 04:55:01;;;;;;;54.13;35.60;;;3.90;99.90;;;;;;5058867;28;20494;-76
2023/12/07 04:57:27;;;;;;;53.42;35.30;;;3.90;99.90;;;;;;5069031;28;20422;-77
2023/12/07 04:59:52;;;;;;;53.30;36.03;;;3.90;99.90;;;;;;5070483;28;20400;-76
2023/12/07 05:02:18;;;;;;;53.43;36.50;;;3.90;99.90;;;;;;5059610;28;20469;-77
2023/12/07 05:04:44;;;;;;;50.63;35.17;;;3.90;99.90;;;;;;5052265;28;20407;-74
2023/12/07 05:07:12;;;;;;;52.90;36.80;;;3.90;99.90;;;;;;5069959;28;20394;-75
2023/12/07 05:09:38;;;;;;;57.30;36.45;;;3.90;99.90;;;;;;5071914;28;20393;-74
2023/12/07 05:12:04;;;;;;;51.28;36.00;;;3.90;99.90;;;;;;5074572;28;20445;-72
2023/12/07 05:14:31;;;;;;;57.05;36.50;;;4.00;99.90;;;;;;5074993;28;20390;-76
2023/12/07 05:16:57;;;;;;;52.15;35.15;;;4.00;99.90;;;;;;5080750;28;21001;-75
2023/12/07 05:19:25;;;;;;;52.60;35.27;;;4.00;99.90;;;;;;5078595;28;20494;-75
2023/12/07 05:21:51;;;;;;;55.30;35.65;;;4.00;99.90;;;;;;5076081;28;20416;-76
2023/12/07 05:24:17;;;;;;;51.10;34.78;;;4.00;99.90;;;;;;5060557;28;20375;-75
2023/12/07 05:26:45;;;;;;;50.90;34.72;;;4.10;99.90;;;;;;5079474;28;20380;-74
2023/12/07 05:29:12;;;;;;;53.10;34.72;;;4.10;99.90;;;;;;5077931;28;20466;-75
2023/12/07 05:31:37;;;;;;;47.60;33.25;;;4.20;99.90;;;;;;5072924;28;20439;-75
2023/12/07 05:34:03;;;;;;;52.45;34.63;;;4.20;99.90;;;;;;5073877;28;20419;-75
2023/12/07 05:36:29;;;;;;;58.30;35.25;;;4.10;99.90;;;;;;5074557;28;20399;-74
2023/12/07 05:38:54;;;;;;;51.47;33.33;;;4.20;99.90;;;;;;5074458;28;20382;-74
2023/12/07 05:41:20;;;;;;;54.70;33.77;;;4.20;99.90;;;;;;5054646;28;20391;-74
2023/12/07 05:43:46;;;;;;;51.97;33.80;;;4.20;99.90;;;;;;5072476;28;20414;-75
2023/12/07 05:46:11;;;;;;;55.17;34.13;;;4.20;99.90;;;;;;5072723;28;20391;-75
2023/12/07 05:48:37;;;;;;;53.22;33.80;;;4.40;99.90;;;;;;5072745;28;20730;-74
2023/12/07 05:51:03;;;;;;;50.00;31.92;;;4.60;98.60;;;;;;5072747;28;20765;-75
2023/12/07 05:53:29;;;;;;;48.37;31.97;;;4.60;93.80;;;;;;5072597;28;20395;-75
2023/12/07 05:55:55;;;;;;;49.80;32.37;;;4.50;93.80;;;;;;5072742;28;20406;-76
2023/12/07 05:58:20;;;;;;;50.00;33.45;;;4.40;94.70;;;;;;5072715;28;20380;-75
2023/12/07 06:00:46;;;;;;;53.55;34.03;;;4.30;96.20;;;;;;5072941;28;20473;-76
2023/12/07 06:03:13;;;;;;;49.45;33.38;;;4.20;97.30;;;;;;5072806;28;20368;-76
2023/12/07 06:05:38;;;;;;;50.73;34.07;;;4.10;98.80;;;;;;5072753;28;20492;-76
2023/12/07 06:08:04;;;;;;;52.90;34.85;;;4.30;98.10;;;;;;5073594;28;20454;-76
2023/12/07 06:10:30;;;;;;;49.78;33.95;;;4.20;97.20;;;;;;5074735;28;20384;-75
2023/12/07 06:12:58;;;;;;;53.50;33.80;;;4.30;96.60;;;;;;5073642;28;20380;-74
2023/12/07 06:15:24;;;;;;;49.20;33.22;;;4.20;98.20;;;;;;5072790;28;20407;-76
2023/12/07 06:17:49;;;;;;;49.97;33.17;;;4.20;98.40;;;;;;5072222;28;20384;-75
2023/12/07 06:20:15;;;;;;;49.30;31.93;;;4.20;98.30;;;;;;5072710;28;20460;-76
2023/12/07 06:22:41;;;;;;;53.97;34.60;;;4.10;99.30;;;;;;5076086;28;20375;-77
2023/12/07 06:25:08;;;;;;;47.60;32.30;;;4.10;97.30;;;;;;5076825;28;20874;-75
2023/12/07 06:27:36;;;;;;;50.65;33.50;;;4.00;98.00;;;;;;5077648;28;20402;-75
2023/12/07 06:30:05;;;;;;;47.55;33.13;;;3.90;99.50;;;;;;5085038;28;20825;-75
2023/12/07 06:32:31;;;;;;;48.53;33.83;;;3.80;97.90;;;;;;5076831;28;20452;-75
2023/12/07 06:34:57;;;;;;;48.55;33.42;;;3.70;98.70;;;;;;5059420;28;20396;-75
2023/12/07 06:37:22;;;;;;;55.63;34.60;;;3.60;99.10;;;;;;5059682;28;20410;-75
2023/12/07 06:39:49;;;;;;;50.90;34.60;;;3.50;99.90;;;;;;5079740;28;20498;-76
2023/12/07 06:42:14;;;;;;;52.30;34.78;;;3.30;99.90;;;;;;5079280;28;20399;-74
2023/12/07 06:44:40;;;;;;;54.60;36.22;;;3.20;99.90;;;;;;5074796;28;20457;-75
2023/12/07 06:47:05;;;;;;;52.00;35.47;;;3.20;99.90;;;;;;5072657;28;20396;-74
2023/12/07 06:49:31;;;;;;;54.27;34.90;;;3.10;99.90;;;;;;5073732;28;20865;-74
2023/12/07 06:51:57;;;;;;;48.80;33.70;;;3.10;99.90;;;;;;5081214;28;20383;-74
2023/12/07 06:54:22;;;;;;;53.03;33.60;;;3.00;99.90;;;;;;5082272;28;20390;-76
2023/12/07 06:56:48;;;;;;;51.33;33.80;;;2.90;99.90;;;;;;5080312;28;20387;-75
2023/12/07 06:59:13;;;;;;;50.63;34.00;;;2.90;99.90;;;;;;5065928;28;20418;-74
2023/12/07 07:01:40;;;;;;;53.50;33.85;;;2.90;99.90;;;;;;5087581;28;20376;-75
2023/12/07 07:04:05;;;;;;;54.35;33.50;;;2.90;99.90;;;;;;5084974;28;20419;-74
2023/12/07 07:06:31;;;;;;;50.83;33.22;;;2.90;99.90;;;;;;5077574;28;20874;-75
2023/12/07 07:08:56;;;;;;;49.53;31.80;;;2.90;99.90;;;;;;5073324;28;20455;-74
2023/12/07 07:11:22;;;;;;;46.83;32.07;;;2.90;99.90;;;;;;5054966;28;20476;-75
2023/12/07 07:13:47;;;;;;;45.70;31.07;;;3.00;99.90;;;;;;5073387;28;20387;-76
2023/12/07 07:16:13;;;;;;;41.47;30.10;;;3.00;99.90;;;;;;5073919;28;20471;-74
2023/12/07 07:18:39;;;;;;;48.53;31.97;;;3.10;99.90;;;;;;5073985;28;20384;-75
2023/12/07 07:21:05;;;;;;;46.92;32.30;;;3.20;99.90;;;;;;5074972;28;20399;-76
2023/12/07 07:23:30;;;;;;;45.00;30.83;;;3.20;99.90;;;;;;5080872;28;20974;-73
2023/12/07 07:25:56;;;;;;;44.45;30.38;;;3.30;99.90;;;;;;5080247;28;20376;-74
2023/12/07 07:28:22;;;;;;;44.35;29.35;;;3.40;99.90;;;;;;5074347;28;20383;-74
2023/12/07 07:30:47;;;;;;;44.43;29.63;;;3.40;99.90;;;;;;5074932;28;20391;-75
2023/12/07 07:33:13;;;;;;;47.73;30.03;;;3.40;99.90;;;;;;5074521;28;20903;-74
2023/12/07 07:35:39;;;;;;;43.50;29.40;;;3.30;99.90;;;;;;5073660;28;21036;-75
2023/12/07 07:38:04;;;;;;;44.63;28.77;;;3.20;99.90;;;;;;5074064;28;20395;-74
2023/12/07 07:40:30;;;;;;;48.97;30.40;;;3.20;99.90;;;;;;5074410;28;20407;-75
2023/12/07 07:42:55;;;;;;;43.27;29.93;;;3.10;99.90;;;;;;5077573;28;20418;-74
2023/12/07 07:45:21;;;;;;;42.53;29.00;;;3.10;99.90;;;;;;5076563;28;20386;-75
2023/12/07 07:47:46;;;;;;;44.20;30.40;;;3.00;99.90;;;;;;5073426;28;20466;-75
2023/12/07 07:50:12;;;;;;;40.20;29.17;;;3.00;99.90;;;;;;5073174;28;20771;-75
2023/12/07 07:52:38;;;;;;;40.05;29.10;;;3.00;99.90;;;;;;5073026;28;20383;-75
2023/12/07 07:55:04;;;;;;;41.50;28.27;;;3.00;99.90;;;;;;5073224;28;20387;-75
2023/12/07 07:57:30;;;;;;;42.67;28.42;;;3.00;99.90;;;;;;5072364;28;20394;-75
2023/12/07 07:59:57;;;;;;;39.17;26.95;;;3.00;99.90;;;;;;5073351;28;20781;-74
2023/12/07 08:02:24;;;;;;;42.65;27.00;;;3.00;99.90;;;;;;5070861;28;20499;-73
2023/12/07 08:04:51;;;;;;;40.28;27.38;;;2.90;99.90;;;;;;5070849;28;20503;-74
2023/12/07 08:07:17;;;;;;;38.83;26.38;;;3.00;99.90;;;;;;5072484;28;20388;-75
2023/12/07 08:09:42;;;;;;;46.08;28.33;;;3.00;99.90;;;;;;5072062;28;20935;-74
2023/12/07 08:12:08;;;;;;;39.75;26.30;;;3.00;99.90;;;;;;5071233;28;20854;-76
2023/12/07 08:14:37;;;;;;;36.42;25.92;;;3.00;99.90;;;;;;5071923;28;20387;-75
2023/12/07 08:17:03;;;;;;;38.50;26.90;;;3.00;99.90;;;;;;5114494;22;20426;-73
2023/12/07 08:19:29;;;;;;;39.00;27.15;;;3.00;99.90;;;;;;5091585;28;20917;-72
2023/12/07 08:21:54;;;;;;;38.87;26.00;;;3.00;99.90;;;;;;5091613;28;20442;-72
2023/12/07 08:24:20;;;;;;;40.90;26.43;;;3.00;99.90;;;;;;5092156;28;20410;-72
2023/12/07 08:26:46;;;;;;;38.73;26.00;;;3.00;99.90;;;;;;5096775;28;20382;-72
2023/12/07 08:29:11;;;;;;;37.43;25.93;;;3.10;99.90;;;;;;5102065;28;20848;-72
2023/12/07 08:31:37;;;;;;;35.67;25.65;;;3.10;99.90;;;;;;5105401;28;20378;-72
2023/12/07 08:34:02;;;;;;;39.28;25.95;;;3.10;99.90;;;;;;5095032;28;20386;-72
2023/12/07 08:36:28;;;;;;;35.75;25.50;;;3.10;99.90;;;;;;5090500;28;20382;-71
2023/12/07 08:38:54;;;;;;;34.45;25.00;;;3.20;99.90;;;;;;5090564;28;20385;-72
2023/12/07 08:41:19;;;;;;;36.57;25.70;;;3.20;99.90;;;;;;5090817;28;20407;-71
2023/12/07 08:43:45;;;;;;;34.67;24.73;;;3.20;99.90;;;;;;5096731;28;20388;-72
2023/12/07 08:46:11;;;;;;;38.50;25.13;;;3.20;99.90;;;;;;5097322;28;20389;-72
2023/12/07 08:48:40;;;;;;;34.25;25.70;;;3.30;99.90;;;;;;5095863;28;20389;-71
2023/12/07 08:51:08;;;;;;;35.80;24.85;;;3.30;99.90;;;;;;5076833;28;20816;-72
2023/12/07 08:53:34;;;;;;;34.75;23.92;;;3.40;98.60;;;;;;5094647;28;20386;-72
2023/12/07 08:56:00;;;;;;;36.97;24.95;;;3.30;97.50;;;;;;5094861;28;20952;-73
2023/12/07 08:58:26;;;;;;;36.30;25.17;;;3.40;99.90;;;;;;5094434;28;20389;-73
2023/12/07 09:00:52;;;;;;;32.60;24.52;;;3.50;95.10;;;;;;5094428;28;20770;-73
2023/12/07 09:03:18;;;;;;;36.03;24.67;;;3.60;96.30;;;;;;5076083;28;20382;-72
2023/12/07 09:05:43;;;;;;;37.00;25.33;;;3.60;95.90;;;;;;5094549;28;20400;-72
2023/12/07 09:08:09;;;;;;;35.37;24.10;;;3.60;92.30;;;;;;5094143;28;20446;-72
2023/12/07 09:10:35;;;;;;;35.63;24.58;;;3.60;89.90;;;;;;5094082;28;20424;-71
2023/12/07 09:13:01;;;;;;;34.28;24.80;;;3.70;90.40;;;;;;5075902;28;20422;-72
2023/12/07 09:15:26;;;;;;;33.53;23.83;;;3.70;91.90;;;;;;5094224;28;20502;-71
2023/12/07 09:17:52;;;;;;;28.93;22.23;;;4.10;94.20;;;;;;5094598;28;20466;-72
2023/12/07 09:20:18;;;;;;;31.57;22.73;;;4.60;80.80;;;;;;5075948;28;20412;-73
2023/12/07 09:22:44;;;;;;;30.17;22.30;;;4.50;74.60;;;;;;5094461;28;20378;-72
2023/12/07 09:25:10;;;;;;;31.13;23.20;;;4.30;76.70;;;;;;5094168;28;20394;-73
2023/12/07 09:27:39;;;;;;;36.73;23.13;;;4.20;76.90;;;;;;5095160;28;20442;-73
2023/12/07 09:30:07;;;;;;;31.52;22.17;;;4.20;77.70;;;;;;5093951;28;20386;-72
2023/12/07 09:32:37;;;;;;;31.75;22.67;;;4.10;81.60;;;;;;5076275;28;20401;-72
2023/12/07 09:35:06;;;;;;;31.17;23.90;;;4.10;79.80;;;;;;5094149;28;20385;-71
2023/12/07 09:37:32;;;;;;;30.52;22.92;;;4.10;76.90;;;;;;5093967;28;20421;-72
2023/12/07 09:39:58;;;;;;;33.47;23.48;;;4.10;75.30;;;;;;5093767;28;20398;-72
2023/12/07 09:42:23;;;;;;;31.30;22.95;;;4.10;78.10;;;;;;5094040;28;20382;-72
2023/12/07 09:44:49;;;;;;;33.03;24.30;;;4.00;77.60;;;;;;5093670;28;20901;-74
2023/12/07 09:47:15;;;;;;;36.92;23.77;;;4.10;76.10;;;;;;5093286;28;20385;-73
2023/12/07 09:49:40;;;;;;;35.78;24.42;;;4.00;75.90;;;;;;5093831;28;20824;-72
2023/12/07 09:52:07;;;;;;;34.47;25.20;;;4.00;77.20;;;;;;5093252;28;20748;-73
2023/12/07 09:54:35;;;;;;;34.65;24.45;;;4.00;79.10;;;;;;5093171;28;20479;-72
2023/12/07 09:57:01;;;;;;;32.15;23.15;;;4.10;78.40;;;;;;5092246;28;20407;-73
2023/12/07 09:59:26;;;;;;;32.70;23.77;;;4.20;73.20;;;;;;5093006;28;20569;-73
2023/12/07 10:01:52;;;;;;;31.83;21.90;;;4.20;74.70;;;;;;5093482;28;20405;-71
2023/12/07 10:04:23;;;;;;;32.70;23.10;;;4.20;73.20;;;;;;5092940;28;20381;-71
2023/12/07 10:06:50;;;;;;;32.47;23.00;;;4.30;78.20;;;;;;5093095;28;20385;-73
2023/12/07 10:09:16;;;;;;;31.83;23.00;;;4.40;74.80;;;;;;5093437;28;20375;-74
2023/12/07 10:11:43;;;;;;;32.13;22.90;;;4.40;74.90;;;;;;5092993;28;20692;-75
2023/12/07 10:14:08;;;;;;;30.55;21.90;;;4.30;70.10;;;;;;5093203;28;20485;-72
2023/12/07 10:16:35;;;;;;;28.90;21.77;;;4.30;69.90;;;;;;5092662;28;20465;-71
2023/12/07 10:19:21;;;;;;;29.33;21.90;;;4.40;72.40;;;;;;5092729;28;20371;-72
2023/12/07 10:21:50;;;;;;;28.63;20.88;;;4.40;70.10;;;;;;5092658;28;20378;-72
2023/12/07 10:24:16;;;;;;;34.22;23.25;;;4.60;70.00;;;;;;5092538;28;20385;-73
2023/12/07 10:26:43;;;;;;;31.23;21.98;;;4.60;68.90;;;;;;5093295;28;20382;-73
2023/12/07 10:29:09;;;;;;;26.67;19.70;;;4.70;68.70;;;;;;5092545;28;20872;-73
2023/12/07 10:31:36;;;;;;;29.35;20.95;;;4.70;64.60;;;;;;5093931;28;20391;-71
2023/12/07 10:34:02;;;;;;;25.80;19.40;;;4.60;63.20;;;;;;5092563;28;20789;-72
2023/12/07 10:36:27;;;;;;;26.75;20.20;;;4.60;63.30;;;;;;5074436;28;20425;-72
2023/12/07 10:38:54;;;;;;;28.23;19.95;;;4.60;63.60;;;;;;5092564;28;20470;-73
2023/12/07 10:41:21;;;;;;;29.45;21.48;;;4.50;62.90;;;;;;5092897;28;20397;-72
2023/12/07 10:43:59;;;;;;;29.23;19.70;;;4.60;64.90;;;;;;5074318;28;20394;-71
2023/12/07 10:46:26;;;;;;;29.08;21.23;;;4.60;63.90;;;;;;5092151;28;20403;-72
2023/12/07 10:48:59;;;;;;;32.13;21.35;;;4.80;65.40;;;;;;5093723;28;20412;-74
2023/12/07 10:51:34;;;;;;;29.20;21.33;;;4.70;64.10;;;;;;5095634;28;20752;-71
2023/12/07 10:54:03;;;;;;;31.42;21.90;;;4.70;63.30;;;;;;5096845;28;20474;-72
2023/12/07 10:56:40;;;;;;;29.13;21.53;;;4.70;64.00;;;;;;5095942;28;20381;-71
2023/12/07 10:59:08;;;;;;;31.40;21.30;;;4.80;60.50;;;;;;5093836;28;20392;-72
2023/12/07 11:01:34;;;;;;;26.60;20.13;;;4.80;59.60;;;;;;5099216;28;20817;-72
2023/12/07 11:04:01;;;;;;;29.13;21.05;;;4.90;58.80;;;;;;5099455;28;20384;-74
2023/12/07 11:06:27;;;;;;;27.88;20.10;;;4.90;60.60;;;;;;5095340;28;20728;-72
2023/12/07 11:08:59;;;;;;;26.90;20.30;;;5.00;58.20;;;;;;5092888;28;20382;-70
2023/12/07 11:11:33;;;;;;;30.73;20.70;;;4.90;60.40;;;;;;5097591;28;20414;-73
2023/12/07 11:14:00;;;;;;;29.48;20.27;;;4.90;61.40;;;;;;5094982;28;20373;-70
2023/12/07 11:16:36;;;;;;;27.85;20.30;;;4.90;60.70;;;;;;5074822;28;20401;-71
2023/12/07 11:19:04;;;;;;;26.63;20.60;;;5.00;60.90;;;;;;5091751;28;20883;-73
2023/12/07 11:21:30;;;;;;;26.33;18.45;;;4.90;60.70;;;;;;5092000;28;20461;-73
2023/12/07 11:23:59;;;;;;;28.27;19.90;;;4.90;57.10;;;;;;5092007;28;20374;-72
2023/12/07 11:26:25;;;;;;;25.80;19.35;;;4.80;59.20;;;;;;5092000;28;20522;-73
2023/12/07 11:28:51;;;;;;;26.70;19.02;;;4.70;58.60;;;;;;5091544;28;20767;-71
2023/12/07 11:31:17;;;;;;;26.98;19.30;;;4.70;59.70;;;;;;5092085;28;20393;-73
2023/12/07 11:33:43;;;;;;;31.75;18.98;;;4.70;60.30;;;;;;5091467;28;20721;-73
2023/12/07 11:36:09;;;;;;;25.52;19.05;;;4.80;58.00;;;;;;5091577;28;20385;-73
2023/12/07 11:38:58;;;;;;;28.77;19.75;;;4.80;58.30;;;;;;5091556;28;20485;-73
2023/12/07 11:41:24;;;;;;;24.73;18.70;;;4.80;56.30;;;;;;5090966;28;20408;-73
2023/12/07 11:43:53;;;;;;;27.20;17.30;;;4.90;56.90;;;;;;5090741;28;20389;-72
2023/12/07 11:46:19;;;;;;;23.17;17.25;;;4.90;56.30;;;;;;5072801;28;20801;-72
2023/12/07 11:48:49;;;;;;;23.52;17.52;;;5.00;54.80;;;;;;5090852;28;20903;-71
2023/12/07 11:51:16;;;;;;;23.90;17.52;;;4.90;54.10;;;;;;5091149;28;20382;-72
2023/12/07 11:53:42;;;;;;;24.92;17.88;;;4.90;54.60;;;;;;5090744;28;20473;-71
2023/12/07 11:56:09;;;;;;;26.55;18.27;;;5.00;57.90;;;;;;5091109;28;20444;-72
2023/12/07 11:58:37;;;;;;;25.05;17.98;;;5.10;54.70;;;;;;5091097;28;20509;-73
2023/12/07 12:01:04;;;;;;;26.75;18.80;;;5.00;54.40;;;;;;5091048;28;20452;-72
2023/12/07 12:03:34;;;;;;;23.60;18.00;;;5.00;56.50;;;;;;5072829;28;20397;-73
2023/12/07 12:06:01;;;;;;;22.92;16.25;;;5.10;56.80;;;;;;5090472;28;20426;-73
2023/12/07 12:08:27;;;;;;;27.35;17.67;;;5.10;54.00;;;;;;5091303;28;20913;-72
2023/12/07 12:10:56;;;;;;;25.27;17.20;;;5.10;52.10;;;;;;5090863;28;20382;-72
2023/12/07 12:13:30;;;;;;;34.47;20.55;;;5.10;53.80;;;;;;5090785;28;20390;-71
2023/12/07 12:15:59;;;;;;;26.70;17.90;;;5.10;54.10;;;;;;5091172;28;20454;-70
2023/12/07 12:18:26;;;;;;;40.10;21.85;;;5.10;55.40;;;;;;5090041;28;20381;-73
2023/12/07 12:20:53;;;;;;;29.30;19.17;;;5.10;55.20;;;;;;5090789;28;20868;-72
2023/12/07 12:23:19;;;;;;;26.95;17.00;;;5.20;55.30;;;;;;5090730;28;20432;-73
2023/12/07 12:25:45;;;;;;;25.27;17.65;;;5.30;54.80;;;;;;5090892;28;20374;-72
2023/12/07 12:28:13;;;;;;;26.02;16.88;;;5.30;51.80;;;;;;5090767;28;20493;-73
2023/12/07 12:30:39;;;;;;;24.02;15.52;;;5.20;52.80;;;;;;5091446;28;20479;-72
2023/12/07 12:33:05;;;;;;;26.87;16.27;;;5.10;51.50;;;;;;5090757;28;20895;-73